sensor_id;sensor_type;location;lat;lon;timestamp;pressure;altitude;pressure_sealevel;temperature;humidity
4590;BME280;2307;48.448;9.216;2022-12-07T00:01:15;95409.38;;;3.06;100.00
4590;BME280;2307;48.448;9.216;2022-12-07T00:03:42;95410.88;;;3.15;100.00
4590;BME280;2307;48.448;9.216;2022-12-07T00:06:10;95406.03;;;3.12;100.00
4590;BME280;2307;48.448;9.216;2022-12-07T00:08:36;95403.16;;;3.29;100.00
4590;BME280;2307;48.448;9.216;2022-12-07T00:11:03;95404.88;;;3.21;100.00
4590;BME280;2307;48.448;9.216;2022-12-07T00:13:30;95400.88;;;3.19;100.00
4590;BME280;2307;48.448;9.216;2022-12-07T00:16:00;95403.69;;;3.24;100.00
4590;BME280;2307;48.448;9.216;2022-12-07T00:18:27;95403.53;;;3.26;100.00
4590;BME280;2307;48.448;9.216;2022-12-07T00:20:58;95412.22;;;3.33;100.00
4590;BME280;2307;48.448;9.216;2022-12-07T00:23:24;95403.56;;;3.32;100.00
4590;BME280;2307;48.448;9.216;2022-12-07T00:25:51;95403.22;;;3.14;100.00
4590;BME280;2307;48.448;9.216;2022-12-07T00:28:17;95388.69;;;3.05;100.00
4590;BME280;2307;48.448;9.216;2022-12-07T00:30:43;95402.00;;;3.10;100.00
4590;BME280;2307;48.448;9.216;2022-12-07T00:33:11;95400.44;;;3.15;100.00
4590;BME280;2307;48.448;9.216;2022-12-07T00:35:37;95406.50;;;3.22;100.00
4590;BME280;2307;48.448;9.216;2022-12-07T00:38:04;95400.91;;;3.26;100.00
4590;BME280;2307;48.448;9.216;2022-12-07T00:40:30;95397.66;;;3.23;100.00
4590;BME280;2307;48.448;9.216;2022-12-07T00:42:56;95394.44;;;3.21;100.00
4590;BME280;2307;48.448;9.216;2022-12-07T00:45:23;95389.72;;;3.32;100.00
4590;BME280;2307;48.448;9.216;2022-12-07T00:47:49;95389.34;;;3.35;100.00
4590;BME280;2307;48.448;9.216;2022-12-07T00:50:17;95393.78;;;3.41;100.00
4590;BME280;2307;48.448;9.216;2022-12-07T00:52:43;95388.78;;;3.46;100.00
4590;BME280;2307;48.448;9.216;2022-12-07T00:55:09;95391.41;;;3.46;100.00
4590;BME280;2307;48.448;9.216;2022-12-07T00:57:36;95390.16;;;3.35;100.00
4590;BME280;2307;48.448;9.216;2022-12-07T01:00:02;95391.50;;;3.31;100.00
4590;BME280;2307;48.448;9.216;2022-12-07T01:02:29;95392.94;;;3.34;100.00
4590;BME280;2307;48.448;9.216;2022-12-07T01:04:55;95396.03;;;3.16;100.00
4590;BME280;2307;48.448;9.216;2022-12-07T01:07:23;95395.09;;;3.02;100.00
4590;BME280;2307;48.448;9.216;2022-12-07T01:09:49;95388.69;;;3.05;100.00
4590;BME280;2307;48.448;9.216;2022-12-07T01:12:15;95389.88;;;3.02;100.00
4590;BME280;2307;48.448;9.216;2022-12-07T01:14:42;95387.53;;;2.86;100.00
4590;BME280;2307;48.448;9.216;2022-12-07T01:17:08;95393.47;;;3.01;100.00
4590;BME280;2307;48.448;9.216;2022-12-07T01:19:34;95395.91;;;3.03;100.00
4590;BME280;2307;48.448;9.216;2022-12-07T01:22:01;95397.59;;;2.89;100.00
4590;BME280;2307;48.448;9.216;2022-12-07T01:24:28;95400.56;;;2.86;100.00
4590;BME280;2307;48.448;9.216;2022-12-07T01:26:55;95394.63;;;2.71;100.00
4590;BME280;2307;48.448;9.216;2022-12-07T01:29:21;95398.53;;;2.82;100.00
4590;BME280;2307;48.448;9.216;2022-12-07T01:31:48;95402.44;;;2.71;100.00
4590;BME280;2307;48.448;9.216;2022-12-07T01:34:14;95407.50;;;2.73;100.00
4590;BME280;2307;48.448;9.216;2022-12-07T01:36:41;95408.09;;;2.75;100.00
4590;BME280;2307;48.448;9.216;2022-12-07T01:39:09;95411.00;;;2.65;100.00
4590;BME280;2307;48.448;9.216;2022-12-07T01:41:37;95413.69;;;2.72;100.00
4590;BME280;2307;48.448;9.216;2022-12-07T01:44:07;95412.50;;;2.74;100.00
4590;BME280;2307;48.448;9.216;2022-12-07T01:46:33;95408.25;;;2.73;100.00
4590;BME280;2307;48.448;9.216;2022-12-07T01:49:00;95412.25;;;2.69;100.00
4590;BME280;2307;48.448;9.216;2022-12-07T01:51:26;95404.88;;;2.73;100.00
4590;BME280;2307;48.448;9.216;2022-12-07T01:53:53;95409.16;;;2.59;100.00
4590;BME280;2307;48.448;9.216;2022-12-07T01:56:20;95405.25;;;2.34;100.00
4590;BME280;2307;48.448;9.216;2022-12-07T01:58:49;95416.94;;;2.38;100.00
4590;BME280;2307;48.448;9.216;2022-12-07T02:01:15;95407.38;;;2.45;100.00
4590;BME280;2307;48.448;9.216;2022-12-07T02:03:43;95409.22;;;2.30;100.00
4590;BME280;2307;48.448;9.216;2022-12-07T02:06:10;95400.94;;;2.41;100.00
4590;BME280;2307;48.448;9.216;2022-12-07T02:08:36;95403.03;;;2.52;100.00
4590;BME280;2307;48.448;9.216;2022-12-07T02:11:03;95403.56;;;2.62;100.00
4590;BME280;2307;48.448;9.216;2022-12-07T02:13:31;95411.50;;;2.75;100.00
4590;BME280;2307;48.448;9.216;2022-12-07T02:16:07;95410.19;;;2.86;100.00
4590;BME280;2307;48.448;9.216;2022-12-07T02:18:42;95402.44;;;2.92;100.00
4590;BME280;2307;48.448;9.216;2022-12-07T02:21:12;95404.06;;;2.93;100.00
4590;BME280;2307;48.448;9.216;2022-12-07T02:26:32;95404.44;;;2.90;100.00
4590;BME280;2307;48.448;9.216;2022-12-07T02:29:09;95408.59;;;2.85;100.00
4590;BME280;2307;48.448;9.216;2022-12-07T02:31:36;95403.56;;;2.83;100.00
4590;BME280;2307;48.448;9.216;2022-12-07T02:34:05;95405.63;;;2.88;100.00
4590;BME280;2307;48.448;9.216;2022-12-07T02:36:34;95400.53;;;3.01;100.00
4590;BME280;2307;48.448;9.216;2022-12-07T02:39:06;95410.38;;;3.05;100.00
4590;BME280;2307;48.448;9.216;2022-12-07T02:41:35;95401.56;;;3.06;100.00
4590;BME280;2307;48.448;9.216;2022-12-07T02:44:03;95403.56;;;3.04;100.00
4590;BME280;2307;48.448;9.216;2022-12-07T02:46:33;95404.22;;;3.13;100.00
4590;BME280;2307;48.448;9.216;2022-12-07T02:49:00;95412.38;;;3.03;100.00
4590;BME280;2307;48.448;9.216;2022-12-07T02:51:29;95402.31;;;2.79;100.00
4590;BME280;2307;48.448;9.216;2022-12-07T02:53:55;95399.38;;;2.89;100.00
4590;BME280;2307;48.448;9.216;2022-12-07T02:56:24;95401.19;;;2.67;100.00
4590;BME280;2307;48.448;9.216;2022-12-07T02:58:56;95397.97;;;2.86;100.00
4590;BME280;2307;48.448;9.216;2022-12-07T03:01:28;95396.91;;;2.81;100.00
4590;BME280;2307;48.448;9.216;2022-12-07T03:04:00;95395.13;;;2.81;100.00
4590;BME280;2307;48.448;9.216;2022-12-07T03:06:30;95396.38;;;2.85;100.00
4590;BME280;2307;48.448;9.216;2022-12-07T03:09:00;95385.34;;;2.90;100.00
4590;BME280;2307;48.448;9.216;2022-12-07T03:11:32;95390.78;;;2.88;100.00
4590;BME280;2307;48.448;9.216;2022-12-07T03:14:01;95391.00;;;2.93;100.00
4590;BME280;2307;48.448;9.216;2022-12-07T03:16:30;95396.59;;;2.90;100.00
4590;BME280;2307;48.448;9.216;2022-12-07T03:19:00;95389.31;;;2.86;100.00
4590;BME280;2307;48.448;9.216;2022-12-07T03:21:29;95396.47;;;2.77;100.00
4590;BME280;2307;48.448;9.216;2022-12-07T03:23:58;95391.75;;;2.87;100.00
4590;BME280;2307;48.448;9.216;2022-12-07T03:26:28;95388.91;;;2.82;100.00
4590;BME280;2307;48.448;9.216;2022-12-07T03:28:57;95386.53;;;2.87;100.00
4590;BME280;2307;48.448;9.216;2022-12-07T03:31:26;95387.72;;;2.85;100.00
4590;BME280;2307;48.448;9.216;2022-12-07T03:33:56;95388.72;;;2.84;100.00
4590;BME280;2307;48.448;9.216;2022-12-07T03:36:28;95386.53;;;2.87;100.00
4590;BME280;2307;48.448;9.216;2022-12-07T03:38:57;95386.53;;;2.87;100.00
4590;BME280;2307;48.448;9.216;2022-12-07T03:41:27;95380.97;;;2.90;100.00
4590;BME280;2307;48.448;9.216;2022-12-07T03:43:54;95382.56;;;2.70;100.00
4590;BME280;2307;48.448;9.216;2022-12-07T03:46:24;95384.88;;;2.80;100.00
4590;BME280;2307;48.448;9.216;2022-12-07T03:48:55;95386.88;;;2.78;100.00
4590;BME280;2307;48.448;9.216;2022-12-07T03:51:24;95384.88;;;2.80;100.00
4590;BME280;2307;48.448;9.216;2022-12-07T03:53:54;95386.53;;;2.87;100.00
4590;BME280;2307;48.448;9.216;2022-12-07T03:56:24;95381.16;;;2.67;100.00
4590;BME280;2307;48.448;9.216;2022-12-07T03:58:55;95384.78;;;2.73;100.00
4590;BME280;2307;48.448;9.216;2022-12-07T04:01:22;95381.97;;;2.68;100.00
4590;BME280;2307;48.448;9.216;2022-12-07T04:03:49;95383.22;;;2.72;100.00
4590;BME280;2307;48.448;9.216;2022-12-07T04:06:20;95385.75;;;2.65;100.00
4590;BME280;2307;48.448;9.216;2022-12-07T04:08:46;95393.94;;;2.62;100.00
4590;BME280;2307;48.448;9.216;2022-12-07T04:11:14;95393.75;;;2.64;100.00
4590;BME280;2307;48.448;9.216;2022-12-07T04:13:41;95394.63;;;2.50;100.00
4590;BME280;2307;48.448;9.216;2022-12-07T04:16:24;95393.28;;;2.39;100.00
4590;BME280;2307;48.448;9.216;2022-12-07T04:18:51;95394.31;;;2.24;100.00
4590;BME280;2307;48.448;9.216;2022-12-07T04:21:17;95393.06;;;2.20;100.00
4590;BME280;2307;48.448;9.216;2022-12-07T04:23:43;95389.69;;;2.04;100.00
4590;BME280;2307;48.448;9.216;2022-12-07T04:26:10;95388.59;;;2.13;100.00
4590;BME280;2307;48.448;9.216;2022-12-07T04:28:37;95384.34;;;2.27;100.00
4590;BME280;2307;48.448;9.216;2022-12-07T04:31:04;95380.31;;;2.25;100.00
4590;BME280;2307;48.448;9.216;2022-12-07T04:33:30;95380.78;;;2.13;100.00
4590;BME280;2307;48.448;9.216;2022-12-07T04:35:57;95376.69;;;2.26;100.00
4590;BME280;2307;48.448;9.216;2022-12-07T04:38:23;95373.09;;;2.27;100.00
4590;BME280;2307;48.448;9.216;2022-12-07T04:40:49;95375.47;;;2.22;100.00
4590;BME280;2307;48.448;9.216;2022-12-07T04:43:16;95377.28;;;2.42;100.00
4590;BME280;2307;48.448;9.216;2022-12-07T04:45:46;95376.53;;;2.48;100.00
4590;BME280;2307;48.448;9.216;2022-12-07T04:48:13;95375.72;;;2.48;100.00
4590;BME280;2307;48.448;9.216;2022-12-07T04:50:39;95370.06;;;2.44;100.00
4590;BME280;2307;48.448;9.216;2022-12-07T04:53:06;95381.00;;;2.54;100.00
4590;BME280;2307;48.448;9.216;2022-12-07T04:55:32;95381.38;;;2.51;100.00
4590;BME280;2307;48.448;9.216;2022-12-07T04:57:58;95379.66;;;2.37;100.00
4590;BME280;2307;48.448;9.216;2022-12-07T05:00:25;95378.03;;;2.36;100.00
4590;BME280;2307;48.448;9.216;2022-12-07T05:02:52;95378.94;;;2.29;100.00
4590;BME280;2307;48.448;9.216;2022-12-07T05:05:19;95378.31;;;2.27;100.00
4590;BME280;2307;48.448;9.216;2022-12-07T05:07:45;95383.00;;;2.17;100.00
4590;BME280;2307;48.448;9.216;2022-12-07T05:10:12;95378.44;;;2.19;100.00
4590;BME280;2307;48.448;9.216;2022-12-07T05:12:38;95368.78;;;2.34;100.00
4590;BME280;2307;48.448;9.216;2022-12-07T05:15:05;95364.16;;;2.14;100.00
4590;BME280;2307;48.448;9.216;2022-12-07T05:17:31;95367.91;;;2.27;100.00
4590;BME280;2307;48.448;9.216;2022-12-07T05:19:59;95361.94;;;2.11;100.00
4590;BME280;2307;48.448;9.216;2022-12-07T05:22:25;95365.72;;;1.94;100.00
4590;BME280;2307;48.448;9.216;2022-12-07T05:24:53;95363.84;;;1.88;100.00
4590;BME280;2307;48.448;9.216;2022-12-07T05:27:19;95360.63;;;1.86;100.00
4590;BME280;2307;48.448;9.216;2022-12-07T05:29:46;95358.63;;;1.88;100.00
4590;BME280;2307;48.448;9.216;2022-12-07T05:32:12;95358.63;;;1.88;100.00
4590;BME280;2307;48.448;9.216;2022-12-07T05:34:39;95356.94;;;1.95;100.00
4590;BME280;2307;48.448;9.216;2022-12-07T05:37:06;95358.72;;;1.95;100.00
4590;BME280;2307;48.448;9.216;2022-12-07T05:39:33;95358.91;;;1.79;100.00
4590;BME280;2307;48.448;9.216;2022-12-07T05:41:59;95361.94;;;1.97;100.00
4590;BME280;2307;48.448;9.216;2022-12-07T05:44:42;95373.00;;;1.84;100.00
4590;BME280;2307;48.448;9.216;2022-12-07T05:47:08;95365.56;;;1.96;100.00
4590;BME280;2307;48.448;9.216;2022-12-07T05:49:35;95374.34;;;1.95;100.00
4590;BME280;2307;48.448;9.216;2022-12-07T05:52:01;95375.31;;;1.94;100.00
4590;BME280;2307;48.448;9.216;2022-12-07T05:54:29;95375.78;;;1.97;100.00
4590;BME280;2307;48.448;9.216;2022-12-07T05:56:56;95369.88;;;1.89;100.00
4590;BME280;2307;48.448;9.216;2022-12-07T05:59:22;95367.38;;;1.66;100.00
4590;BME280;2307;48.448;9.216;2022-12-07T06:01:48;95375.91;;;1.60;100.00
4590;BME280;2307;48.448;9.216;2022-12-07T06:04:14;95377.06;;;1.72;100.00
4590;BME280;2307;48.448;9.216;2022-12-07T06:06:40;95376.50;;;1.62;100.00
4590;BME280;2307;48.448;9.216;2022-12-07T06:09:07;95368.56;;;1.49;100.00
4590;BME280;2307;48.448;9.216;2022-12-07T06:11:35;95375.34;;;1.50;100.00
4590;BME280;2307;48.448;9.216;2022-12-07T06:14:18;95378.97;;;1.49;100.00
4590;BME280;2307;48.448;9.216;2022-12-07T06:16:45;95372.50;;;1.45;100.00
4590;BME280;2307;48.448;9.216;2022-12-07T06:19:11;95378.41;;;1.39;100.00
4590;BME280;2307;48.448;9.216;2022-12-07T06:21:37;95370.78;;;1.37;100.00
4590;BME280;2307;48.448;9.216;2022-12-07T06:24:04;95371.75;;;1.22;100.00
4590;BME280;2307;48.448;9.216;2022-12-07T06:26:31;95376.41;;;1.12;100.00
4590;BME280;2307;48.448;9.216;2022-12-07T06:28:58;95372.50;;;0.93;100.00
4590;BME280;2307;48.448;9.216;2022-12-07T06:31:25;95368.63;;;0.89;100.00
4590;BME280;2307;48.448;9.216;2022-12-07T06:33:51;95362.19;;;0.85;100.00
4590;BME280;2307;48.448;9.216;2022-12-07T06:36:22;95357.63;;;0.87;100.00
4590;BME280;2307;48.448;9.216;2022-12-07T06:38:49;95355.56;;;0.82;100.00
4590;BME280;2307;48.448;9.216;2022-12-07T06:41:15;95364.91;;;0.91;100.00
4590;BME280;2307;48.448;9.216;2022-12-07T06:43:41;95365.25;;;0.88;100.00
4590;BME280;2307;48.448;9.216;2022-12-07T06:46:09;95363.72;;;0.94;100.00
4590;BME280;2307;48.448;9.216;2022-12-07T06:48:35;95365.00;;;0.98;100.00
4590;BME280;2307;48.448;9.216;2022-12-07T06:51:02;95372.25;;;1.02;100.00
4590;BME280;2307;48.448;9.216;2022-12-07T06:53:28;95367.63;;;1.13;100.00
4590;BME280;2307;48.448;9.216;2022-12-07T06:55:55;95382.50;;;1.19;100.00
4590;BME280;2307;48.448;9.216;2022-12-07T06:58:21;95378.28;;;1.18;100.00
4590;BME280;2307;48.448;9.216;2022-12-07T07:00:48;95379.50;;;1.30;100.00
4590;BME280;2307;48.448;9.216;2022-12-07T07:03:16;95377.31;;;1.19;100.00
4590;BME280;2307;48.448;9.216;2022-12-07T07:05:42;95381.09;;;1.16;100.00
4590;BME280;2307;48.448;9.216;2022-12-07T07:08:09;95377.81;;;0.99;100.00
4590;BME280;2307;48.448;9.216;2022-12-07T07:10:36;95379.78;;;0.97;100.00
4590;BME280;2307;48.448;9.216;2022-12-07T07:13:03;95379.09;;;1.03;100.00
4590;BME280;2307;48.448;9.216;2022-12-07T07:15:29;95370.38;;;0.96;100.00
4590;BME280;2307;48.448;9.216;2022-12-07T07:17:56;95376.19;;;0.98;100.00
4590;BME280;2307;48.448;9.216;2022-12-07T07:20:23;95382.31;;;1.05;100.00
4590;BME280;2307;48.448;9.216;2022-12-07T07:22:50;95389.69;;;1.17;100.00
4590;BME280;2307;48.448;9.216;2022-12-07T07:25:16;95390.31;;;1.19;100.00
4590;BME280;2307;48.448;9.216;2022-12-07T07:27:43;95382.97;;;1.37;100.00
4590;BME280;2307;48.448;9.216;2022-12-07T07:30:10;95385.84;;;1.56;100.00
4590;BME280;2307;48.448;9.216;2022-12-07T07:32:36;95383.44;;;1.55;100.00
4590;BME280;2307;48.448;9.216;2022-12-07T07:35:03;95385.44;;;1.68;100.00
4590;BME280;2307;48.448;9.216;2022-12-07T07:37:31;95394.59;;;1.49;100.00
4590;BME280;2307;48.448;9.216;2022-12-07T07:39:57;95390.69;;;1.59;100.00
4590;BME280;2307;48.448;9.216;2022-12-07T07:42:24;95396.97;;;1.65;100.00
4590;BME280;2307;48.448;9.216;2022-12-07T07:44:50;95397.34;;;1.77;100.00
4590;BME280;2307;48.448;9.216;2022-12-07T07:47:16;95393.91;;;1.91;100.00
4590;BME280;2307;48.448;9.216;2022-12-07T07:49:43;95391.69;;;1.88;100.00
4590;BME280;2307;48.448;9.216;2022-12-07T07:52:09;95392.31;;;1.90;100.00
4590;BME280;2307;48.448;9.216;2022-12-07T07:54:37;95396.00;;;1.95;100.00
4590;BME280;2307;48.448;9.216;2022-12-07T07:57:03;95397.94;;;2.08;100.00
4590;BME280;2307;48.448;9.216;2022-12-07T07:59:30;95403.97;;;2.08;100.00
4590;BME280;2307;48.448;9.216;2022-12-07T08:01:56;95405.78;;;1.79;100.00
4590;BME280;2307;48.448;9.216;2022-12-07T08:04:22;95390.97;;;1.50;100.00
4590;BME280;2307;48.448;9.216;2022-12-07T08:06:49;95391.94;;;1.34;100.00
4590;BME280;2307;48.448;9.216;2022-12-07T08:09:15;95387.91;;;1.32;100.00
4590;BME280;2307;48.448;9.216;2022-12-07T08:11:43;95401.28;;;1.43;100.00
4590;BME280;2307;48.448;9.216;2022-12-07T08:14:10;95403.09;;;1.72;100.00
4590;BME280;2307;48.448;9.216;2022-12-07T08:16:37;95406.59;;;1.79;100.00
4590;BME280;2307;48.448;9.216;2022-12-07T08:19:04;95406.31;;;1.89;100.00
4590;BME280;2307;48.448;9.216;2022-12-07T08:21:30;95411.06;;;1.85;100.00
4590;BME280;2307;48.448;9.216;2022-12-07T08:23:56;95412.34;;;1.89;100.00
4590;BME280;2307;48.448;9.216;2022-12-07T08:26:23;95423.00;;;2.09;100.00
4590;BME280;2307;48.448;9.216;2022-12-07T08:28:52;95423.44;;;2.27;100.00
4590;BME280;2307;48.448;9.216;2022-12-07T08:31:18;95419.31;;;2.54;100.00
4590;BME280;2307;48.448;9.216;2022-12-07T08:33:45;95422.19;;;2.59;100.00
4590;BME280;2307;48.448;9.216;2022-12-07T08:36:12;95426.56;;;2.37;100.00
4590;BME280;2307;48.448;9.216;2022-12-07T08:38:39;95429.72;;;2.54;100.00
4590;BME280;2307;48.448;9.216;2022-12-07T08:41:06;95430.09;;;2.51;100.00
4590;BME280;2307;48.448;9.216;2022-12-07T08:43:33;95438.19;;;2.77;100.00
4590;BME280;2307;48.448;9.216;2022-12-07T08:46:03;95439.84;;;2.63;100.00
4590;BME280;2307;48.448;9.216;2022-12-07T08:48:32;95432.63;;;2.80;100.00
4590;BME280;2307;48.448;9.216;2022-12-07T08:51:00;95428.28;;;2.87;100.00
4590;BME280;2307;48.448;9.216;2022-12-07T08:53:27;95432.41;;;2.60;100.00
4590;BME280;2307;48.448;9.216;2022-12-07T08:55:53;95433.44;;;2.45;100.00
4590;BME280;2307;48.448;9.216;2022-12-07T08:58:20;95428.75;;;2.76;100.00
4590;BME280;2307;48.448;9.216;2022-12-07T09:00:46;95427.28;;;2.88;100.00
4590;BME280;2307;48.448;9.216;2022-12-07T09:03:14;95428.06;;;2.67;100.00
4590;BME280;2307;48.448;9.216;2022-12-07T09:05:40;95429.47;;;2.85;100.00
4590;BME280;2307;48.448;9.216;2022-12-07T09:08:07;95435.97;;;2.95;100.00
4590;BME280;2307;48.448;9.216;2022-12-07T09:10:34;95437.22;;;2.99;100.00
4590;BME280;2307;48.448;9.216;2022-12-07T09:13:00;95429.22;;;3.01;100.00
4590;BME280;2307;48.448;9.216;2022-12-07T09:15:26;95436.16;;;3.15;100.00
4590;BME280;2307;48.448;9.216;2022-12-07T09:17:53;95435.66;;;3.26;100.00
4590;BME280;2307;48.448;9.216;2022-12-07T09:20:21;95427.22;;;3.03;100.00
4590;BME280;2307;48.448;9.216;2022-12-07T09:22:48;95433.69;;;3.07;100.00
4590;BME280;2307;48.448;9.216;2022-12-07T09:25:14;95437.34;;;3.12;100.00
4590;BME280;2307;48.448;9.216;2022-12-07T09:27:41;95429.03;;;3.30;100.00
4590;BME280;2307;48.448;9.216;2022-12-07T09:30:07;95433.72;;;3.35;100.00
4590;BME280;2307;48.448;9.216;2022-12-07T09:32:34;95428.38;;;3.49;100.00
4590;BME280;2307;48.448;9.216;2022-12-07T09:35:00;95439.63;;;3.50;100.00
4590;BME280;2307;48.448;9.216;2022-12-07T09:37:28;95433.53;;;3.64;100.00
4590;BME280;2307;48.448;9.216;2022-12-07T09:39:54;95433.44;;;3.51;100.00
4590;BME280;2307;48.448;9.216;2022-12-07T09:42:25;95431.13;;;3.69;100.00
4590;BME280;2307;48.448;9.216;2022-12-07T09:44:52;95432.75;;;3.70;100.00
4590;BME280;2307;48.448;9.216;2022-12-07T09:47:18;95421.00;;;3.87;100.00
4590;BME280;2307;48.448;9.216;2022-12-07T09:49:45;95416.00;;;3.92;100.00
4590;BME280;2307;48.448;9.216;2022-12-07T09:52:17;95418.69;;;4.05;100.00
4590;BME280;2307;48.448;9.216;2022-12-07T09:54:47;95415.41;;;3.97;100.00
4590;BME280;2307;48.448;9.216;2022-12-07T09:57:14;95414.00;;;3.94;100.00
4590;BME280;2307;48.448;9.216;2022-12-07T09:59:41;95409.63;;;3.67;100.00
4590;BME280;2307;48.448;9.216;2022-12-07T10:04:49;95406.16;;;3.94;100.00
4590;BME280;2307;48.448;9.216;2022-12-07T10:07:15;95405.66;;;3.71;100.00
4590;BME280;2307;48.448;9.216;2022-12-07T10:09:41;95407.09;;;3.80;100.00
4590;BME280;2307;48.448;9.216;2022-12-07T10:12:10;95407.59;;;3.62;100.00
4590;BME280;2307;48.448;9.216;2022-12-07T10:14:37;95405.47;;;3.79;100.00
4590;BME280;2307;48.448;9.216;2022-12-07T10:17:17;95401.94;;;3.93;100.00
4590;BME280;2307;48.448;9.216;2022-12-07T10:19:57;95404.94;;;3.90;100.00
4590;BME280;2307;48.448;9.216;2022-12-07T10:22:34;95397.88;;;3.84;100.00
4590;BME280;2307;48.448;9.216;2022-12-07T10:25:07;95393.13;;;3.60;100.00
4590;BME280;2307;48.448;9.216;2022-12-07T10:27:35;95389.56;;;3.67;100.00
4590;BME280;2307;48.448;9.216;2022-12-07T10:30:01;95389.59;;;3.74;100.00
4590;BME280;2307;48.448;9.216;2022-12-07T10:32:35;95389.97;;;3.71;100.00
4590;BME280;2307;48.448;9.216;2022-12-07T10:37:52;95393.72;;;3.96;100.00
4590;BME280;2307;48.448;9.216;2022-12-07T10:40:23;95385.09;;;3.96;100.00
4590;BME280;2307;48.448;9.216;2022-12-07T10:43:01;95387.09;;;4.00;100.00
4590;BME280;2307;48.448;9.216;2022-12-07T10:45:28;95390.59;;;3.73;100.00
4590;BME280;2307;48.448;9.216;2022-12-07T10:47:55;95389.63;;;3.87;100.00
4590;BME280;2307;48.448;9.216;2022-12-07T10:50:29;95382.25;;;3.97;100.00
4590;BME280;2307;48.448;9.216;2022-12-07T10:55:56;95376.44;;;3.95;100.00
4590;BME280;2307;48.448;9.216;2022-12-07T10:58:34;95376.19;;;3.90;100.00
4590;BME280;2307;48.448;9.216;2022-12-07T11:01:04;95372.25;;;4.07;100.00
4590;BME280;2307;48.448;9.216;2022-12-07T11:03:38;95366.44;;;4.05;100.00
4590;BME280;2307;48.448;9.216;2022-12-07T11:06:14;95365.03;;;4.09;100.00
4590;BME280;2307;48.448;9.216;2022-12-07T11:08:47;95363.06;;;4.18;100.00
4590;BME280;2307;48.448;9.216;2022-12-07T11:11:19;95355.63;;;4.21;100.00
4590;BME280;2307;48.448;9.216;2022-12-07T11:13:51;95349.66;;;4.34;100.00
4590;BME280;2307;48.448;9.216;2022-12-07T11:16:29;95364.47;;;4.20;100.00
4590;BME280;2307;48.448;9.216;2022-12-07T11:19:00;95354.84;;;4.27;100.00
4590;BME280;2307;48.448;9.216;2022-12-07T11:21:34;95355.69;;;4.48;100.00
4590;BME280;2307;48.448;9.216;2022-12-07T11:24:06;95344.03;;;4.44;100.00
4590;BME280;2307;48.448;9.216;2022-12-07T11:26:49;95343.44;;;4.55;100.00
4590;BME280;2307;48.448;9.216;2022-12-07T11:29:24;95343.84;;;4.58;100.00
4590;BME280;2307;48.448;9.216;2022-12-07T11:31:58;95351.72;;;4.65;100.00
4590;BME280;2307;48.448;9.216;2022-12-07T11:34:31;95348.69;;;4.68;100.00
4590;BME280;2307;48.448;9.216;2022-12-07T11:37:02;95337.25;;;4.69;100.00
4590;BME280;2307;48.448;9.216;2022-12-07T11:39:30;95332.41;;;4.79;100.00
4590;BME280;2307;48.448;9.216;2022-12-07T11:42:00;95327.38;;;4.77;100.00
4590;BME280;2307;48.448;9.216;2022-12-07T11:44:31;95331.38;;;4.60;100.00
4590;BME280;2307;48.448;9.216;2022-12-07T11:47:00;95325.13;;;4.55;100.00
4590;BME280;2307;48.448;9.216;2022-12-07T11:49:33;95323.09;;;4.31;100.00
4590;BME280;2307;48.448;9.216;2022-12-07T11:52:04;95325.31;;;4.34;100.00
4590;BME280;2307;48.448;9.216;2022-12-07T11:54:34;95321.28;;;4.38;100.00
4590;BME280;2307;48.448;9.216;2022-12-07T11:57:02;95315.63;;;4.21;100.00
4590;BME280;2307;48.448;9.216;2022-12-07T11:59:32;95316.88;;;4.45;100.00
4590;BME280;2307;48.448;9.216;2022-12-07T12:02:03;95310.66;;;4.52;100.00
4590;BME280;2307;48.448;9.216;2022-12-07T12:04:41;95323.91;;;4.51;100.00
4590;BME280;2307;48.448;9.216;2022-12-07T12:07:11;95306.44;;;4.58;100.00
4590;BME280;2307;48.448;9.216;2022-12-07T12:09:42;95314.06;;;4.53;100.00
4590;BME280;2307;48.448;9.216;2022-12-07T12:15:02;95306.03;;;4.61;100.00
4590;BME280;2307;48.448;9.216;2022-12-07T12:17:49;95303.00;;;4.51;100.00
4590;BME280;2307;48.448;9.216;2022-12-07T12:20:19;95298.59;;;4.58;100.00
4590;BME280;2307;48.448;9.216;2022-12-07T12:22:47;95294.97;;;4.59;100.00
4590;BME280;2307;48.448;9.216;2022-12-07T12:25:19;95300.22;;;4.72;100.00
4590;BME280;2307;48.448;9.216;2022-12-07T12:27:46;95290.72;;;4.58;100.00
4590;BME280;2307;48.448;9.216;2022-12-07T12:30:25;95285.28;;;4.33;100.00
4590;BME280;2307;48.448;9.216;2022-12-07T12:32:52;95284.03;;;4.22;100.00
4590;BME280;2307;48.448;9.216;2022-12-07T12:35:27;95278.03;;;4.42;100.00
4590;BME280;2307;48.448;9.216;2022-12-07T12:37:54;95279.69;;;4.62;100.00
4590;BME280;2307;48.448;9.216;2022-12-07T12:40:40;95278.88;;;4.68;100.00
4590;BME280;2307;48.448;9.216;2022-12-07T12:45:49;95272.03;;;5.00;100.00
4590;BME280;2307;48.448;9.216;2022-12-07T12:53:41;95266.38;;;5.03;100.00
4590;BME280;2307;48.448;9.216;2022-12-07T12:58:48;95270.41;;;5.12;100.00
4590;BME280;2307;48.448;9.216;2022-12-07T13:01:33;95262.31;;;5.20;100.00
4590;BME280;2307;48.448;9.216;2022-12-07T13:04:03;95261.13;;;5.23;100.00
4590;BME280;2307;48.448;9.216;2022-12-07T13:06:40;95264.34;;;5.12;100.00
4590;BME280;2307;48.448;9.216;2022-12-07T13:09:15;95253.09;;;4.98;100.00
4590;BME280;2307;48.448;9.216;2022-12-07T13:11:44;95254.72;;;4.99;100.00
4590;BME280;2307;48.448;9.216;2022-12-07T13:16:58;95254.66;;;5.25;100.00
4590;BME280;2307;48.448;9.216;2022-12-07T13:24:49;95249.63;;;5.24;100.00
4590;BME280;2307;48.448;9.216;2022-12-07T13:27:20;95248.66;;;5.12;100.00
4590;BME280;2307;48.448;9.216;2022-12-07T13:29:47;95243.25;;;4.94;100.00
4590;BME280;2307;48.448;9.216;2022-12-07T13:32:21;95244.66;;;4.96;100.00
4590;BME280;2307;48.448;9.216;2022-12-07T13:34:49;95241.84;;;4.65;100.00
4590;BME280;2307;48.448;9.216;2022-12-07T13:37:17;95236.00;;;4.82;100.00
4590;BME280;2307;48.448;9.216;2022-12-07T13:39:47;95246.69;;;4.81;100.00
4590;BME280;2307;48.448;9.216;2022-12-07T13:42:16;95236.63;;;4.85;100.00
4590;BME280;2307;48.448;9.216;2022-12-07T13:44:45;95237.38;;;5.05;100.00
4590;BME280;2307;48.448;9.216;2022-12-07T13:47:13;95237.38;;;4.98;100.00
4590;BME280;2307;48.448;9.216;2022-12-07T13:49:48;95237.03;;;4.55;100.00
4590;BME280;2307;48.448;9.216;2022-12-07T13:52:15;95231.97;;;4.80;100.00
4590;BME280;2307;48.448;9.216;2022-12-07T13:54:45;95232.97;;;4.86;100.00
4590;BME280;2307;48.448;9.216;2022-12-07T13:57:12;95226.16;;;4.85;100.00
4590;BME280;2307;48.448;9.216;2022-12-07T13:59:39;95226.50;;;5.01;100.00
4590;BME280;2307;48.448;9.216;2022-12-07T14:02:16;95228.53;;;4.99;100.00